createdAt,value
2022-10-16T00:01:51.559Z,93.05
2022-10-16T00:04:15.408Z,91.89
2022-10-16T00:06:40.771Z,92.65
2022-10-16T00:09:04.597Z,93.17
2022-10-16T00:11:30.705Z,93.17
2022-10-16T00:13:58.106Z,92.99
2022-10-16T00:16:22.414Z,92.88
2022-10-16T00:18:46.000Z,93.56
2022-10-16T00:21:11.994Z,92.61
2022-10-16T00:23:37.559Z,93.00
2022-10-16T00:26:03.692Z,92.54
2022-10-16T00:28:27.691Z,92.00
2022-10-16T00:30:51.331Z,91.94
2022-10-16T00:33:14.887Z,91.47
2022-10-16T00:35:38.490Z,90.93
2022-10-16T00:38:02.003Z,91.42
2022-10-16T00:40:27.040Z,90.69
2022-10-16T00:42:50.593Z,91.14
2022-10-16T00:45:14.402Z,91.73
2022-10-16T00:47:41.470Z,91.30
2022-10-16T00:50:11.055Z,92.87
2022-10-16T00:52:35.469Z,91.82
2022-10-16T00:55:00.070Z,91.90
2022-10-16T00:57:25.330Z,90.85
2022-10-16T00:59:49.011Z,90.67
2022-10-16T01:02:16.159Z,89.84
2022-10-16T01:04:44.852Z,90.31
2022-10-16T01:07:16.768Z,91.81
2022-10-16T01:09:52.046Z,90.93
2022-10-16T01:12:25.933Z,90.96
2022-10-16T01:14:56.710Z,90.30
2022-10-16T01:17:25.559Z,90.62
2022-10-16T01:20:13.529Z,91.67
2022-10-16T01:22:48.325Z,90.87
2022-10-16T01:25:19.733Z,91.03
2022-10-16T01:27:48.194Z,90.85
2022-10-16T01:30:18.973Z,90.80
2022-10-16T01:32:45.624Z,90.48
2022-10-16T01:35:17.107Z,91.21
2022-10-16T01:37:50.107Z,90.33
2022-10-16T01:40:18.539Z,89.11
2022-10-16T01:42:50.407Z,90.93
2022-10-16T01:45:19.191Z,90.87
2022-10-16T01:47:44.786Z,91.09
2022-10-16T01:50:10.642Z,90.78
2022-10-16T01:52:37.430Z,89.54
2022-10-16T01:55:03.545Z,89.50
2022-10-16T01:57:28.496Z,88.64
2022-10-16T01:59:58.623Z,89.31
2022-10-16T02:02:25.121Z,88.99
2022-10-16T02:04:53.279Z,90.63
2022-10-16T02:07:17.388Z,91.08
2022-10-16T02:09:41.874Z,90.39
2022-10-16T02:12:14.487Z,91.15
2022-10-16T02:14:41.246Z,91.31
2022-10-16T02:17:15.327Z,90.12
2022-10-16T02:22:11.123Z,90.11
2022-10-16T02:24:41.536Z,91.34
2022-10-16T02:27:12.671Z,91.13
2022-10-16T02:29:45.478Z,90.62
2022-10-16T02:32:12.807Z,91.79
2022-10-16T02:34:37.606Z,90.94
2022-10-16T02:37:04.531Z,90.56
2022-10-16T02:39:29.710Z,90.54
2022-10-16T02:41:53.324Z,90.01
2022-10-16T02:44:16.887Z,89.94
2022-10-16T02:46:40.526Z,90.44
2022-10-16T02:49:05.676Z,89.85
2022-10-16T02:51:29.283Z,88.55
2022-10-16T02:53:52.871Z,89.71
2022-10-16T02:56:16.577Z,89.67
2022-10-16T02:58:40.206Z,88.61
2022-10-16T03:01:03.974Z,88.73
2022-10-16T03:03:27.555Z,87.68
2022-10-16T03:05:53.248Z,86.79
2022-10-16T03:08:17.325Z,86.88
2022-10-16T03:10:40.935Z,87.29
2022-10-16T03:13:04.542Z,87.09
2022-10-16T03:15:29.253Z,87.32
2022-10-16T03:17:52.754Z,86.81
2022-10-16T03:20:16.678Z,86.03
2022-10-16T03:22:41.635Z,85.77
2022-10-16T03:25:06.030Z,86.77
2022-10-16T03:27:29.822Z,86.65
2022-10-16T03:29:53.858Z,85.54
2022-10-16T03:32:17.410Z,87.36
2022-10-16T03:34:40.967Z,87.49
2022-10-16T03:37:04.855Z,86.37
2022-10-16T03:39:29.835Z,87.36
2022-10-16T03:41:53.340Z,88.72
2022-10-16T03:44:17.191Z,87.32
2022-10-16T03:46:40.875Z,87.22
2022-10-16T03:49:06.180Z,86.00
2022-10-16T03:51:32.543Z,87.06
2022-10-16T03:53:56.183Z,88.21
2022-10-16T03:56:21.105Z,89.46
2022-10-16T03:58:44.722Z,88.65
2022-10-16T04:01:08.525Z,88.29
2022-10-16T04:03:32.256Z,88.66
2022-10-16T04:05:55.819Z,88.96
2022-10-16T04:08:19.401Z,88.57
2022-10-16T04:10:44.775Z,89.92
2022-10-16T04:13:09.761Z,89.09
2022-10-16T04:15:33.308Z,90.06
2022-10-16T04:17:56.904Z,90.65
2022-10-16T04:20:20.830Z,90.62
2022-10-16T04:22:44.376Z,89.51
2022-10-16T04:25:08.706Z,90.63
2022-10-16T04:27:32.329Z,90.59
2022-10-16T04:29:57.224Z,90.48
2022-10-16T04:32:20.831Z,89.46
2022-10-16T04:34:44.321Z,89.03
2022-10-16T04:37:08.028Z,88.15
2022-10-16T04:39:31.560Z,89.89
2022-10-16T04:41:55.179Z,89.45
2022-10-16T04:44:18.706Z,88.43
2022-10-16T04:46:43.870Z,88.87
2022-10-16T04:49:07.569Z,88.91
2022-10-16T04:51:31.174Z,87.21
2022-10-16T04:53:55.320Z,86.64
2022-10-16T04:56:18.894Z,87.86
2022-10-16T04:58:42.391Z,86.22
2022-10-16T05:01:06.372Z,86.59
2022-10-16T05:05:59.695Z,87.59
2022-10-16T05:08:23.321Z,86.22
2022-10-16T05:10:47.884Z,86.96
2022-10-16T05:13:11.686Z,89.50
2022-10-16T05:15:35.245Z,87.10
2022-10-16T05:17:58.811Z,86.23
2022-10-16T05:20:24.783Z,86.99
2022-10-16T05:22:48.367Z,86.70
2022-10-16T05:25:11.941Z,88.43
2022-10-16T05:27:35.471Z,87.72
2022-10-16T05:29:59.034Z,87.84
2022-10-16T05:32:22.540Z,87.57
2022-10-16T05:34:46.711Z,88.41
2022-10-16T05:37:12.566Z,88.89
2022-10-16T05:39:37.880Z,88.61
2022-10-16T05:42:01.542Z,88.29
2022-10-16T05:44:25.182Z,89.13
2022-10-16T05:46:49.035Z,89.43
2022-10-16T05:49:12.619Z,90.75
2022-10-16T05:51:36.178Z,91.91
2022-10-16T05:54:01.098Z,91.55
2022-10-16T05:56:24.660Z,92.10
2022-10-16T05:58:48.271Z,92.51
2022-10-16T06:01:14.680Z,93.60
2022-10-16T06:03:38.470Z,90.98
2022-10-16T06:06:12.196Z,92.56
2022-10-16T06:08:36.171Z,93.19
2022-10-16T06:11:09.266Z,91.13
2022-10-16T06:13:32.898Z,91.95
2022-10-16T06:15:59.539Z,92.61
2022-10-16T06:18:23.091Z,93.53
2022-10-16T06:20:46.697Z,92.91
2022-10-16T06:23:10.304Z,93.50
2022-10-16T06:25:34.148Z,95.07
2022-10-16T06:27:59.187Z,94.54
2022-10-16T06:30:22.717Z,95.72
2022-10-16T06:32:46.461Z,95.99
2022-10-16T06:35:10.656Z,94.74
2022-10-16T06:37:34.251Z,93.75
2022-10-16T06:39:57.849Z,94.04
2022-10-16T06:42:21.764Z,92.98
2022-10-16T06:44:46.748Z,92.77
2022-10-16T06:47:10.375Z,92.85
2022-10-16T06:49:33.951Z,93.09
2022-10-16T06:51:57.554Z,92.87
2022-10-16T06:54:21.072Z,93.11
2022-10-16T06:56:44.707Z,93.37
2022-10-16T06:59:08.271Z,91.98
2022-10-16T07:01:33.618Z,91.76
2022-10-16T07:03:57.801Z,90.45
2022-10-16T07:06:23.810Z,90.14
2022-10-16T07:08:49.073Z,90.54
2022-10-16T07:11:14.916Z,90.38
2022-10-16T07:13:39.395Z,90.54
2022-10-16T07:16:07.903Z,89.74
2022-10-16T07:18:33.527Z,89.00
2022-10-16T07:21:06.827Z,89.61
2022-10-16T07:23:30.371Z,89.31
2022-10-16T07:25:57.144Z,89.09
2022-10-16T07:28:20.727Z,89.07
2022-10-16T07:30:44.331Z,89.19
2022-10-16T07:33:07.926Z,89.18
2022-10-16T07:35:33.248Z,88.27
2022-10-16T07:37:56.945Z,88.50
2022-10-16T07:40:20.610Z,88.06
2022-10-16T07:42:44.648Z,87.66
2022-10-16T07:45:09.551Z,88.63
2022-10-16T07:47:33.290Z,87.40
2022-10-16T07:49:56.926Z,87.54
2022-10-16T07:52:22.158Z,87.00
2022-10-16T07:54:45.854Z,87.28
2022-10-16T07:57:09.631Z,86.60
2022-10-16T07:59:33.152Z,86.89
2022-10-16T08:01:56.738Z,86.54
2022-10-16T08:04:21.147Z,86.59
2022-10-16T08:06:44.744Z,86.03
2022-10-16T08:09:10.811Z,86.60
2022-10-16T08:11:34.655Z,86.38
2022-10-16T08:13:58.216Z,86.60
2022-10-16T08:16:21.970Z,86.57
2022-10-16T08:18:45.478Z,85.84
2022-10-16T08:21:18.473Z,86.16
2022-10-16T08:23:45.258Z,85.55
2022-10-16T08:26:11.114Z,85.25
2022-10-16T08:28:34.889Z,85.11
2022-10-16T08:30:58.717Z,84.60
2022-10-16T08:33:22.293Z,84.72
2022-10-16T08:35:53.476Z,84.28
2022-10-16T08:38:17.305Z,84.73
2022-10-16T08:40:40.979Z,85.20
2022-10-16T08:43:27.382Z,84.72
2022-10-16T08:46:17.853Z,85.31
2022-10-16T08:48:48.750Z,85.03
2022-10-16T08:51:24.791Z,85.24
2022-10-16T08:53:54.594Z,83.89
2022-10-16T08:56:19.704Z,83.96
2022-10-16T08:58:44.981Z,83.14
2022-10-16T09:01:16.690Z,83.55
2022-10-16T09:04:12.621Z,81.69
2022-10-16T09:06:47.975Z,82.79
2022-10-16T09:09:36.119Z,80.73
2022-10-16T09:12:07.858Z,81.01
2022-10-16T09:14:47.033Z,80.35
2022-10-16T09:17:29.590Z,79.76
2022-10-16T09:19:58.858Z,79.10
2022-10-16T09:22:29.447Z,79.45
2022-10-16T09:24:53.043Z,78.38
2022-10-16T09:27:17.207Z,78.66
2022-10-16T09:29:43.120Z,77.53
2022-10-16T09:32:17.039Z,76.93
2022-10-16T09:34:47.723Z,77.41
2022-10-16T09:37:16.035Z,76.71
2022-10-16T09:39:47.451Z,77.37
2022-10-16T09:42:15.754Z,76.58
2022-10-16T09:47:19.366Z,75.54
2022-10-16T09:49:54.307Z,73.58
2022-10-16T09:52:18.344Z,75.22
2022-10-16T09:54:53.295Z,75.53
2022-10-16T09:57:17.103Z,74.53
2022-10-16T09:59:51.066Z,73.89
2022-10-16T10:02:18.003Z,72.08
2022-10-16T10:04:46.612Z,72.67
2022-10-16T10:07:20.885Z,72.54
2022-10-16T10:09:47.798Z,72.58
2022-10-16T10:12:24.437Z,72.75
2022-10-16T10:14:54.151Z,73.56
2022-10-16T10:17:21.297Z,73.18
2022-10-16T10:19:53.687Z,73.03
2022-10-16T10:22:41.919Z,74.04
2022-10-16T10:25:44.395Z,71.90
2022-10-16T10:28:30.616Z,71.87
2022-10-16T10:31:03.789Z,71.79
2022-10-16T10:33:38.830Z,70.52
2022-10-16T10:36:17.341Z,70.31
2022-10-16T10:38:49.978Z,69.73
2022-10-16T10:42:12.594Z,68.86
2022-10-16T10:45:14.056Z,70.52
2022-10-16T10:47:49.989Z,68.32
2022-10-16T10:50:24.155Z,68.16
2022-10-16T10:53:02.115Z,67.27
2022-10-16T10:55:36.030Z,68.86
2022-10-16T10:58:17.714Z,68.72
2022-10-16T11:00:53.344Z,69.01
2022-10-16T11:03:37.519Z,68.08
2022-10-16T11:06:07.807Z,68.42
2022-10-16T11:08:38.358Z,68.42
2022-10-16T11:11:07.142Z,68.61
2022-10-16T11:13:36.395Z,67.48
2022-10-16T11:16:04.334Z,68.38
2022-10-16T11:18:45.006Z,67.75
2022-10-16T11:21:12.910Z,66.74
2022-10-16T11:23:44.855Z,67.03
2022-10-16T11:26:17.606Z,67.44
2022-10-16T11:28:48.374Z,66.26
2022-10-16T11:31:18.451Z,66.43
2022-10-16T11:33:48.654Z,65.13
2022-10-16T11:36:18.974Z,66.82
2022-10-16T11:38:51.370Z,65.23
2022-10-16T11:41:24.779Z,64.18
2022-10-16T11:43:59.284Z,62.04
2022-10-16T11:46:27.112Z,61.94
2022-10-16T11:48:57.844Z,60.56
2022-10-16T11:51:29.591Z,61.67
2022-10-16T11:54:00.899Z,60.80
2022-10-16T11:56:24.833Z,61.66
2022-10-16T11:58:58.648Z,60.12
2022-10-16T12:01:29.590Z,60.16
2022-10-16T12:04:17.299Z,57.99
2022-10-16T12:06:45.972Z,60.87
2022-10-16T12:09:18.721Z,58.42
2022-10-16T12:11:42.312Z,58.98
2022-10-16T12:15:14.834Z,59.22
2022-10-16T12:17:29.392Z,56.58
2022-10-16T12:20:03.306Z,57.59
2022-10-16T12:22:29.862Z,60.26
2022-10-16T12:24:54.147Z,56.58
2022-10-16T12:27:30.320Z,55.84
2022-10-16T12:29:59.100Z,56.08
2022-10-16T12:32:47.855Z,56.51
2022-10-16T12:35:24.238Z,55.12
2022-10-16T12:37:48.151Z,56.27
2022-10-16T12:40:18.316Z,55.45
2022-10-16T12:42:42.134Z,56.56
2022-10-16T12:45:27.150Z,56.47
2022-10-16T12:47:53.399Z,57.36
2022-10-16T12:50:34.009Z,55.82
2022-10-16T12:52:57.690Z,55.64
2022-10-16T12:55:23.888Z,55.52
2022-10-16T12:58:10.882Z,55.92
2022-10-16T13:00:46.455Z,55.50
2022-10-16T13:04:11.135Z,57.02
2022-10-16T13:06:48.074Z,56.67
2022-10-16T13:09:39.798Z,57.74
2022-10-16T13:12:52.404Z,55.55
2022-10-16T13:15:37.763Z,56.50
2022-10-16T13:18:09.224Z,55.94
2022-10-16T13:20:38.692Z,56.14
2022-10-16T13:23:16.781Z,55.72
2022-10-16T13:25:56.328Z,55.63
2022-10-16T13:28:30.543Z,56.93
2022-10-16T13:30:56.087Z,57.57
2022-10-16T13:33:25.951Z,55.89
2022-10-16T13:35:53.238Z,57.88
2022-10-16T13:38:20.976Z,56.22
2022-10-16T13:40:54.199Z,56.89
2022-10-16T13:43:19.360Z,56.35
2022-10-16T13:45:42.891Z,57.86
2022-10-16T13:48:08.784Z,56.69
2022-10-16T13:50:32.347Z,54.99
2022-10-16T13:53:07.120Z,56.66
2022-10-16T13:55:33.459Z,53.41
2022-10-16T13:58:07.939Z,53.00
2022-10-16T14:00:32.880Z,53.18
2022-10-16T14:03:03.438Z,53.64
2022-10-16T14:05:27.219Z,52.28
2022-10-16T14:07:52.981Z,54.69
2022-10-16T14:10:25.887Z,52.28
2022-10-16T14:12:58.530Z,53.68
2022-10-16T14:15:22.396Z,53.45
2022-10-16T14:17:51.848Z,53.50
2022-10-16T14:20:17.738Z,55.86
2022-10-16T14:22:43.339Z,54.51
2022-10-16T14:25:33.019Z,54.92
2022-10-16T14:28:04.738Z,55.76
2022-10-16T14:30:29.103Z,55.22
2022-10-16T14:32:58.184Z,55.38
2022-10-16T14:35:29.556Z,56.43
2022-10-16T14:37:55.724Z,54.45
2022-10-16T14:40:20.438Z,55.22
2022-10-16T14:42:46.522Z,56.91
2022-10-16T14:45:12.952Z,56.85
2022-10-16T14:47:37.156Z,56.45
2022-10-16T14:50:00.750Z,56.15
2022-10-16T14:52:24.615Z,55.22
2022-10-16T14:54:51.025Z,55.24
2022-10-16T14:57:21.284Z,55.49
2022-10-16T14:59:46.143Z,56.48
2022-10-16T15:02:25.077Z,55.98
2022-10-16T15:04:49.425Z,55.17
2022-10-16T15:07:13.023Z,56.73
2022-10-16T15:09:36.700Z,55.88
2022-10-16T15:12:00.203Z,54.62
2022-10-16T15:14:23.751Z,54.33
2022-10-16T15:16:47.473Z,56.25
2022-10-16T15:19:12.489Z,54.36
2022-10-16T15:21:36.068Z,55.33
2022-10-16T15:24:01.420Z,56.38
2022-10-16T15:26:25.666Z,56.05
2022-10-16T15:28:49.296Z,56.24
2022-10-16T15:31:12.911Z,56.77
2022-10-16T15:33:39.680Z,56.79
2022-10-16T15:36:06.018Z,57.06
2022-10-16T15:38:31.020Z,57.04
2022-10-16T15:40:54.595Z,57.83
2022-10-16T15:43:18.703Z,56.95
2022-10-16T15:45:42.303Z,57.46
2022-10-16T15:48:06.398Z,57.41
2022-10-16T15:50:30.133Z,57.85
2022-10-16T15:52:55.116Z,58.44
2022-10-16T15:55:19.737Z,58.38
2022-10-16T15:57:44.228Z,58.85
2022-10-16T16:00:10.794Z,60.25
2022-10-16T16:02:37.799Z,60.03
2022-10-16T16:05:01.383Z,61.68
2022-10-16T16:07:25.080Z,62.56
2022-10-16T16:09:50.080Z,63.29
2022-10-16T16:12:13.757Z,62.83
2022-10-16T16:14:37.463Z,63.66
2022-10-16T16:17:02.392Z,63.79
2022-10-16T16:19:26.146Z,64.45
2022-10-16T16:21:50.182Z,65.40
2022-10-16T16:24:13.704Z,65.91
2022-10-16T16:26:40.937Z,66.23
2022-10-16T16:29:05.898Z,66.30
2022-10-16T16:31:32.103Z,66.94
2022-10-16T16:33:56.967Z,67.30
2022-10-16T16:36:21.093Z,68.31
2022-10-16T16:38:44.688Z,68.27
2022-10-16T16:41:15.548Z,68.75
2022-10-16T16:43:40.562Z,69.04
2022-10-16T16:46:04.806Z,69.29
2022-10-16T16:48:28.405Z,69.67
2022-10-16T16:50:51.948Z,69.77
2022-10-16T16:53:15.586Z,70.62
2022-10-16T16:55:39.136Z,70.33
2022-10-16T16:58:03.970Z,70.83
2022-10-16T17:00:28.974Z,71.20
2022-10-16T17:02:53.150Z,71.81
2022-10-16T17:05:16.950Z,72.07
2022-10-16T17:07:41.836Z,72.48
2022-10-16T17:10:06.519Z,72.56
2022-10-16T17:12:31.792Z,73.07
2022-10-16T17:14:55.299Z,73.10
2022-10-16T17:17:20.794Z,73.63
2022-10-16T17:19:44.542Z,73.59
2022-10-16T17:22:08.265Z,73.93
2022-10-16T17:24:31.781Z,73.97
2022-10-16T17:26:55.417Z,74.48
2022-10-16T17:29:19.727Z,74.92
2022-10-16T17:31:43.416Z,75.14
2022-10-16T17:34:11.795Z,74.82
2022-10-16T17:36:37.918Z,75.02
2022-10-16T17:39:04.401Z,75.25
2022-10-16T17:41:28.099Z,76.04
2022-10-16T17:43:52.650Z,75.82
2022-10-16T17:46:18.775Z,75.84
2022-10-16T17:48:45.520Z,76.20
2022-10-16T17:51:12.866Z,76.41
2022-10-16T17:53:37.413Z,77.14
2022-10-16T17:56:05.564Z,76.80
2022-10-16T18:00:57.588Z,76.81
2022-10-16T18:03:21.322Z,77.17
2022-10-16T18:05:44.887Z,77.40
2022-10-16T18:08:09.858Z,77.95
2022-10-16T18:10:33.562Z,77.71
2022-10-16T18:12:57.132Z,78.32
2022-10-16T18:15:20.745Z,78.61
2022-10-16T18:17:44.947Z,78.13
2022-10-16T18:20:10.797Z,77.89
2022-10-16T18:22:35.910Z,78.85
2022-10-16T18:25:04.341Z,79.49
2022-10-16T18:27:28.065Z,78.60
2022-10-16T18:29:56.450Z,79.65
2022-10-16T18:32:19.993Z,79.45
2022-10-16T18:34:43.583Z,79.54
2022-10-16T18:37:07.322Z,79.84
2022-10-16T18:39:30.878Z,80.98
2022-10-16T18:41:59.789Z,80.21
2022-10-16T18:44:23.595Z,79.92
2022-10-16T18:46:47.093Z,79.84
2022-10-16T18:49:11.200Z,80.34
2022-10-16T18:51:37.072Z,80.38
2022-10-16T18:54:03.227Z,80.82
2022-10-16T18:56:29.214Z,81.04
2022-10-16T18:58:54.882Z,80.86
2022-10-16T19:01:21.730Z,79.60
2022-10-16T19:03:45.471Z,80.30
2022-10-16T19:06:11.186Z,80.66
2022-10-16T19:08:34.801Z,80.61
2022-10-16T19:10:58.322Z,80.65
2022-10-16T19:13:22.602Z,81.52
2022-10-16T19:15:57.957Z,82.23
2022-10-16T19:18:26.021Z,80.95
2022-10-16T19:20:50.587Z,81.74
2022-10-16T19:23:14.224Z,81.77
2022-10-16T19:25:40.084Z,81.31
2022-10-16T19:28:07.469Z,81.45
2022-10-16T19:30:31.059Z,81.37
2022-10-16T19:32:56.076Z,81.12
2022-10-16T19:35:19.687Z,81.25
2022-10-16T19:37:43.720Z,81.89
2022-10-16T19:40:08.891Z,81.94
2022-10-16T19:42:32.544Z,82.20
2022-10-16T19:44:56.068Z,81.63
2022-10-16T19:47:22.245Z,82.08
2022-10-16T19:49:49.711Z,81.72
2022-10-16T19:52:13.295Z,81.50
2022-10-16T19:54:39.026Z,81.68
2022-10-16T19:57:02.759Z,82.43
2022-10-16T19:59:26.323Z,82.87
2022-10-16T20:01:50.239Z,82.39
2022-10-16T20:04:14.480Z,81.59
2022-10-16T20:06:39.654Z,81.96
2022-10-16T20:09:03.223Z,82.58
2022-10-16T20:11:30.193Z,81.68
2022-10-16T20:13:54.194Z,81.75
2022-10-16T20:16:19.993Z,81.53
2022-10-16T20:18:44.122Z,81.94
2022-10-16T20:21:12.072Z,81.59
2022-10-16T20:23:37.599Z,81.58
2022-10-16T20:26:04.140Z,82.03
2022-10-16T20:28:28.074Z,81.36
2022-10-16T20:30:52.402Z,82.42
2022-10-16T20:33:16.543Z,81.44
2022-10-16T20:35:44.895Z,80.69
2022-10-16T20:38:08.627Z,82.13
2022-10-16T20:40:36.320Z,82.71
2022-10-16T20:42:59.853Z,81.72
2022-10-16T20:45:23.492Z,82.01
2022-10-16T20:47:47.433Z,81.76
2022-10-16T20:50:12.162Z,81.47
2022-10-16T20:52:36.219Z,81.83
2022-10-16T20:54:59.867Z,81.35
2022-10-16T20:57:25.027Z,82.20
2022-10-16T20:59:55.213Z,81.77
2022-10-16T21:02:18.841Z,81.35
2022-10-16T21:04:42.502Z,80.79
2022-10-16T21:07:06.055Z,82.51
2022-10-16T21:09:29.680Z,81.60
2022-10-16T21:11:53.363Z,81.82
2022-10-16T21:14:18.349Z,81.66
2022-10-16T21:16:41.929Z,81.03
2022-10-16T21:19:05.876Z,82.37
2022-10-16T21:21:32.740Z,81.52
2022-10-16T21:23:57.964Z,82.34
2022-10-16T21:26:26.062Z,81.55
2022-10-16T21:28:49.697Z,82.26
2022-10-16T21:31:18.930Z,82.61
2022-10-16T21:33:42.702Z,82.08
2022-10-16T21:36:15.481Z,83.30
2022-10-16T21:38:39.145Z,83.35
2022-10-16T21:41:02.698Z,83.12
2022-10-16T21:43:26.294Z,82.47
2022-10-16T21:45:49.791Z,84.21
2022-10-16T21:48:14.808Z,82.00
2022-10-16T21:50:38.335Z,82.21
2022-10-16T21:53:01.942Z,84.29
2022-10-16T21:55:25.446Z,82.67
2022-10-16T21:57:49.055Z,82.19
2022-10-16T22:00:13.842Z,82.88
2022-10-16T22:02:37.718Z,82.44
2022-10-16T22:05:02.842Z,82.74
2022-10-16T22:07:26.718Z,81.41
2022-10-16T22:09:50.396Z,81.94
2022-10-16T22:12:19.553Z,81.58
2022-10-16T22:14:43.052Z,81.74
2022-10-16T22:17:06.675Z,81.78
2022-10-16T22:19:30.204Z,80.96
2022-10-16T22:21:57.287Z,81.47
2022-10-16T22:24:20.939Z,83.83
2022-10-16T22:26:44.978Z,85.99
2022-10-16T22:29:09.639Z,83.64
2022-10-16T22:31:33.573Z,82.53
2022-10-16T22:33:58.331Z,82.47
2022-10-16T22:36:21.947Z,82.92
2022-10-16T22:38:46.850Z,85.29
2022-10-16T22:41:12.728Z,85.17
2022-10-16T22:43:38.195Z,83.51
2022-10-16T22:46:04.743Z,82.60
2022-10-16T22:48:28.235Z,82.20
2022-10-16T22:50:51.806Z,82.46
2022-10-16T22:53:15.363Z,82.34
2022-10-16T22:55:40.314Z,82.18
2022-10-16T22:58:03.883Z,82.61
2022-10-16T23:00:27.965Z,82.37
2022-10-16T23:02:51.550Z,82.49
2022-10-16T23:05:15.379Z,82.23
2022-10-16T23:07:39.391Z,82.53
2022-10-16T23:10:03.066Z,85.28
2022-10-16T23:12:28.424Z,84.69
2022-10-16T23:14:52.639Z,83.57
2022-10-16T23:17:16.138Z,83.02
2022-10-16T23:19:39.734Z,84.29
2022-10-16T23:22:03.418Z,83.45
2022-10-16T23:24:27.071Z,83.90
2022-10-16T23:26:50.571Z,83.86
2022-10-16T23:29:15.539Z,83.21
2022-10-16T23:31:39.132Z,83.56
2022-10-16T23:34:02.731Z,84.07
2022-10-16T23:36:26.514Z,83.80
2022-10-16T23:38:51.720Z,82.91
2022-10-16T23:41:15.991Z,83.51
2022-10-16T23:43:39.870Z,84.68
2022-10-16T23:46:07.490Z,86.40
2022-10-16T23:48:31.727Z,84.51
2022-10-16T23:50:55.248Z,85.92
2022-10-16T23:53:18.908Z,85.13
2022-10-16T23:55:42.422Z,85.34
2022-10-16T23:58:06.186Z,84.06
